Time;durP1;ratioP1;P1;durP2;ratioP2;P2;SDS_P1;SDS_P2;PMS_P1;PMS_P2;Temp;Humidity;BMP_temperature;BMP_pressure;BME280_temperature;BME280_humidity;BME280_pressure;Samples;Min_cycle;Max_cycle;Signal;HPM_P1;HPM_P2
2021/09/10 00:01:57;;;;;;;16.20;13.40;;;24.00;50.10;;;;;;4750195;55;21069;-31
2021/09/10 00:06:58;;;;;;;14.75;12.50;;;24.00;50.10;;;;;;4751526;55;21038;-30
2021/09/10 00:11:59;;;;;;;15.35;12.88;;;23.90;50.00;;;;;;4777241;54;21077;-32
2021/09/10 00:17:00;;;;;;;14.05;12.55;;;23.90;50.10;;;;;;4734306;55;21013;-31
2021/09/10 00:22:01;;;;;;;14.65;12.20;;;23.90;50.00;;;;;;4757153;55;21045;-27
2021/09/10 00:27:10;;;;;;;13.82;12.18;;;23.90;50.00;;;;;;4745137;55;21046;-28
2021/09/10 00:32:11;;;;;;;12.77;11.45;;;23.90;50.00;;;;;;4746101;55;21487;-34
2021/09/10 00:37:12;;;;;;;13.15;11.75;;;23.90;50.00;;;;;;4731090;59;21049;-30
2021/09/10 00:42:13;;;;;;;13.10;11.48;;;23.90;50.00;;;;;;4779528;55;21088;-33
2021/09/10 00:47:14;;;;;;;13.57;11.98;;;23.90;49.90;;;;;;4762496;54;21037;-32
2021/09/10 00:52:18;;;;;;;14.98;12.05;;;23.90;49.90;;;;;;4795205;54;21080;-31
2021/09/10 00:57:19;;;;;;;12.52;11.23;;;23.90;49.90;;;;;;4740361;55;21069;-34
2021/09/10 01:02:20;;;;;;;12.77;11.45;;;23.90;49.90;;;;;;4761885;54;21526;-35
2021/09/10 01:07:25;;;;;;;13.68;11.82;;;23.90;49.90;;;;;;4783523;54;21156;-28
2021/09/10 01:12:26;;;;;;;12.48;10.77;;;23.90;49.90;;;;;;4731901;59;20989;-32
2021/09/10 01:17:27;;;;;;;12.75;11.45;;;23.90;49.90;;;;;;4758036;54;21583;-30
2021/09/10 01:22:27;;;;;;;11.63;10.43;;;23.90;49.90;;;;;;4774814;54;21001;-33
2021/09/10 01:27:28;;;;;;;13.93;11.48;;;23.90;49.80;;;;;;4737087;55;21045;-33
2021/09/10 01:32:29;;;;;;;13.18;11.55;;;23.90;49.80;;;;;;4731544;59;21005;-28
2021/09/10 01:37:30;;;;;;;12.68;11.00;;;23.90;49.80;;;;;;4733394;55;21129;-32
2021/09/10 01:42:31;;;;;;;11.95;10.27;;;23.90;49.80;;;;;;4744111;54;21499;-33
2021/09/10 01:47:35;;;;;;;11.88;10.50;;;23.90;49.80;;;;;;4733963;54;21021;-29
2021/09/10 01:52:37;;;;;;;11.27;9.85;;;23.90;49.70;;;;;;4776246;55;21460;-31
2021/09/10 01:57:39;;;;;;;12.37;10.23;;;23.90;49.70;;;;;;4754579;55;21009;-29
2021/09/10 02:02:40;;;;;;;11.55;10.38;;;23.90;49.70;;;;;;4802818;54;21029;-32
2021/09/10 02:07:41;;;;;;;11.82;10.02;;;23.90;49.70;;;;;;4730241;59;21503;-30
2021/09/10 02:12:42;;;;;;;10.88;9.57;;;23.90;49.70;;;;;;4739063;54;21068;-32
2021/09/10 02:17:43;;;;;;;10.65;9.52;;;23.90;49.60;;;;;;4744204;55;21547;-33
2021/09/10 02:22:44;;;;;;;10.90;9.75;;;23.90;49.70;;;;;;4747496;55;21021;-25
2021/09/10 02:27:46;;;;;;;10.80;9.68;;;23.80;49.60;;;;;;4737571;55;21105;-30
2021/09/10 02:32:47;;;;;;;10.90;9.65;;;23.80;49.50;;;;;;4735062;54;21052;-31
2021/09/10 02:37:48;;;;;;;11.77;9.85;;;23.80;49.50;;;;;;4738148;55;21093;-29
2021/09/10 02:42:49;;;;;;;9.82;8.82;;;23.80;49.50;;;;;;4731734;59;21494;-30
2021/09/10 02:47:50;;;;;;;10.60;9.07;;;23.80;49.50;;;;;;4754285;55;21108;-30
2021/09/10 02:52:51;;;;;;;9.98;8.98;;;23.80;49.50;;;;;;4747307;55;21061;-27
2021/09/10 02:57:52;;;;;;;9.75;8.75;;;23.80;49.50;;;;;;4763670;55;21535;-31
2021/09/10 03:02:53;;;;;;;10.20;9.10;;;23.80;49.40;;;;;;4731537;59;21081;-31
2021/09/10 03:07:53;;;;;;;10.02;8.73;;;23.80;49.40;;;;;;4746837;55;21554;-29
2021/09/10 03:12:54;;;;;;;10.00;8.98;;;23.80;49.40;;;;;;4731642;59;21005;-25
2021/09/10 03:17:55;;;;;;;9.85;8.15;;;23.80;49.40;;;;;;4797290;54;21112;-29
2021/09/10 03:22:56;;;;;;;9.27;8.32;;;23.80;49.40;;;;;;4766198;55;21064;-30
2021/09/10 03:27:57;;;;;;;9.45;8.32;;;23.80;49.30;;;;;;4740004;55;21613;-32
2021/09/10 03:32:59;;;;;;;9.30;7.95;;;23.80;49.30;;;;;;4757174;55;21072;-30
2021/09/10 03:38:00;;;;;;;8.50;7.60;;;23.80;49.30;;;;;;4748271;55;21025;-32
2021/09/10 03:43:05;;;;;;;9.43;8.52;;;23.80;49.30;;;;;;4779708;55;21495;-31
2021/09/10 03:48:06;;;;;;;9.38;7.97;;;23.80;49.30;;;;;;4734893;55;21109;-30
2021/09/10 03:53:07;;;;;;;8.85;7.93;;;23.80;49.30;;;;;;4740703;55;21207;-29
2021/09/10 03:58:08;;;;;;;9.50;8.32;;;23.70;49.20;;;;;;4774047;55;21515;-32
2021/09/10 04:03:09;;;;;;;8.90;7.45;;;23.80;49.30;;;;;;4749932;55;21049;-32
2021/09/10 04:08:10;;;;;;;8.63;7.72;;;23.80;49.20;;;;;;4759542;55;21081;-31
2021/09/10 04:13:11;;;;;;;10.13;7.62;;;23.70;49.10;;;;;;4733610;55;21483;-33
2021/09/10 04:18:12;;;;;;;9.30;8.30;;;23.70;49.10;;;;;;4731540;59;21085;-32
2021/09/10 04:23:13;;;;;;;8.68;7.78;;;23.70;49.00;;;;;;4731457;55;21895;-34
2021/09/10 04:28:13;;;;;;;9.75;7.62;;;23.70;49.00;;;;;;4732748;55;21089;-29
2021/09/10 04:33:14;;;;;;;8.80;7.75;;;23.70;49.10;;;;;;4737466;55;21077;-31
2021/09/10 04:38:15;;;;;;;8.52;7.62;;;23.70;49.00;;;;;;4744921;54;21056;-33
2021/09/10 04:43:17;;;;;;;8.50;7.12;;;23.70;49.00;;;;;;4785098;54;21491;-28
2021/09/10 04:48:18;;;;;;;8.88;7.32;;;23.70;49.00;;;;;;4737681;55;21014;-29
2021/09/10 04:53:19;;;;;;;9.65;7.68;;;23.70;48.90;;;;;;4751177;55;21064;-29
2021/09/10 04:58:21;;;;;;;8.60;7.68;;;23.70;48.90;;;;;;4731808;55;21017;-28
2021/09/10 05:03:21;;;;;;;9.90;7.55;;;23.70;48.90;;;;;;4803514;55;21560;-32
2021/09/10 05:08:22;;;;;;;8.68;7.70;;;23.70;48.90;;;;;;4757521;55;21017;-32
2021/09/10 05:13:23;;;;;;;9.63;6.97;;;23.70;48.80;;;;;;4733900;55;21030;-33
2021/09/10 05:18:24;;;;;;;7.70;6.90;;;23.70;48.80;;;;;;4731131;59;21042;-32
2021/09/10 05:23:25;;;;;;;8.60;7.20;;;23.70;48.70;;;;;;4731158;59;21519;-33
2021/09/10 05:28:25;;;;;;;8.95;6.93;;;23.70;48.70;;;;;;4752419;55;21065;-33
2021/09/10 05:33:26;;;;;;;8.10;6.93;;;23.70;48.70;;;;;;4752825;55;21077;-29
2021/09/10 05:38:27;;;;;;;8.35;7.15;;;23.60;48.60;;;;;;4742956;55;21102;-31
2021/09/10 05:43:28;;;;;;;9.45;7.35;;;23.70;48.60;;;;;;4731350;59;21037;-29
2021/09/10 05:48:29;;;;;;;9.25;7.53;;;23.70;48.60;;;;;;4731476;59;21077;-32
2021/09/10 05:53:32;;;;;;;7.70;6.90;;;23.60;48.50;;;;;;4765860;55;21017;-30
2021/09/10 05:58:33;;;;;;;10.10;7.57;;;23.60;48.60;;;;;;4752718;55;21021;-33
2021/09/10 06:03:34;;;;;;;8.93;7.18;;;23.60;48.50;;;;;;4731507;59;21124;-34
2021/09/10 06:08:38;;;;;;;10.00;7.78;;;23.60;48.50;;;;;;4751911;55;21021;-32
2021/09/10 06:13:39;;;;;;;8.05;7.07;;;23.60;48.50;;;;;;4732089;55;21037;-33
2021/09/10 06:18:40;;;;;;;9.20;7.68;;;23.60;48.50;;;;;;4748397;55;21045;-32
2021/09/10 06:23:41;;;;;;;9.45;7.43;;;23.60;48.50;;;;;;4730798;59;21395;-29
2021/09/10 06:28:42;;;;;;;9.80;7.82;;;23.60;48.50;;;;;;4754932;55;21631;-33
2021/09/10 06:33:43;;;;;;;10.60;8.50;;;23.60;48.60;;;;;;4783708;55;22009;-32
2021/09/10 06:38:44;;;;;;;9.52;8.52;;;23.60;48.60;;;;;;4757356;55;21021;-27
2021/09/10 06:43:45;;;;;;;11.25;8.15;;;23.60;48.60;;;;;;4786115;55;21097;-28
2021/09/10 06:48:45;;;;;;;8.80;7.57;;;23.60;48.50;;;;;;4731149;59;21840;-30
2021/09/10 06:53:46;;;;;;;9.68;7.37;;;23.60;48.60;;;;;;4739360;55;21058;-31
2021/09/10 06:58:47;;;;;;;9.63;7.90;;;23.60;48.60;;;;;;4736303;55;21048;-34
2021/09/10 07:03:48;;;;;;;8.70;7.75;;;23.60;48.60;;;;;;4762334;55;21062;-34
2021/09/10 07:08:49;;;;;;;9.65;8.13;;;23.60;48.60;;;;;;4730713;59;21018;-29
2021/09/10 07:13:50;;;;;;;9.77;8.15;;;23.60;48.60;;;;;;4757549;55;21032;-31
2021/09/10 07:18:50;;;;;;;10.75;8.63;;;23.60;48.70;;;;;;4748904;55;21061;-32
2021/09/10 07:23:51;;;;;;;11.77;8.75;;;23.60;48.90;;;;;;4738668;55;21491;-30
2021/09/10 07:28:52;;;;;;;10.98;8.55;;;23.70;49.10;;;;;;4752963;55;21013;-31
2021/09/10 07:33:53;;;;;;;11.27;8.80;;;23.70;49.20;;;;;;4750692;55;21626;-33
2021/09/10 07:38:54;;;;;;;11.50;8.80;;;23.70;49.30;;;;;;4746690;55;21013;-33
2021/09/10 07:43:54;;;;;;;17.60;10.13;;;23.80;49.40;;;;;;4760117;55;21021;-31
2021/09/10 07:48:55;;;;;;;14.98;10.10;;;23.80;49.40;;;;;;4750151;55;21476;-31
2021/09/10 07:53:56;;;;;;;12.45;9.95;;;23.90;49.70;;;;;;4744151;54;21013;-30
2021/09/10 07:58:57;;;;;;;15.98;10.32;;;23.80;49.70;;;;;;4735533;55;20993;-32
2021/09/10 08:03:58;;;;;;;14.20;10.77;;;23.90;49.80;;;;;;4742245;54;21120;-29
2021/09/10 08:08:59;;;;;;;16.70;12.13;;;23.90;50.50;;;;;;4742673;55;21428;-34
2021/09/10 08:14:07;;;;;;;21.10;14.73;;;23.90;49.90;;;;;;4736467;55;21097;-33
2021/09/10 08:19:08;;;;;;;22.58;14.68;;;23.90;49.90;;;;;;4731326;59;21554;-35
2021/09/10 08:24:09;;;;;;;24.50;15.85;;;23.90;49.80;;;;;;4730768;55;21586;-34
2021/09/10 08:29:10;;;;;;;26.40;17.08;;;24.00;49.90;;;;;;4771673;55;21535;-31
2021/09/10 08:34:11;;;;;;;22.25;16.12;;;24.00;50.00;;;;;;4741230;55;21009;-30
2021/09/10 08:39:12;;;;;;;25.30;17.15;;;24.00;50.40;;;;;;4730596;59;21021;-31
2021/09/10 08:44:14;;;;;;;25.33;16.80;;;24.00;50.50;;;;;;4743546;55;21037;-31
2021/09/10 08:49:15;;;;;;;28.70;19.12;;;24.00;50.60;;;;;;4771397;54;21546;-32
2021/09/10 08:54:18;;;;;;;27.87;19.67;;;24.00;50.70;;;;;;4741290;54;21561;-32
2021/09/10 08:59:20;;;;;;;30.23;18.95;;;24.00;50.70;;;;;;4754163;54;21480;-32
2021/09/10 09:04:23;;;;;;;29.15;19.25;;;24.00;50.80;;;;;;4785342;54;21036;-31
2021/09/10 09:09:37;;;;;;;26.70;18.80;;;24.10;50.90;;;;;;4750427;54;21005;-32
2021/09/10 09:14:47;;;;;;;27.40;19.23;;;24.10;51.10;;;;;;4769426;54;21021;-32
2021/09/10 09:20:19;;;;;;;26.55;18.48;;;24.10;51.10;;;;;;4730891;58;21038;-33
2021/09/10 09:25:53;;;;;;;26.25;18.73;;;24.10;51.20;;;;;;4732860;54;21133;-32
2021/09/10 09:31:03;;;;;;;27.85;18.85;;;24.10;51.30;;;;;;4748809;54;20993;-32
2021/09/10 09:36:06;;;;;;;29.30;19.10;;;24.20;51.40;;;;;;4732953;55;21010;-34
2021/09/10 09:41:13;;;;;;;25.33;18.58;;;24.20;51.50;;;;;;4736088;54;21563;-29
2021/09/10 09:46:16;;;;;;;27.50;19.00;;;24.20;51.70;;;;;;4751245;54;21600;-32
2021/09/10 09:51:20;;;;;;;26.27;18.42;;;24.20;51.70;;;;;;4766951;54;21145;-31
2021/09/10 09:56:23;;;;;;;27.40;18.98;;;24.20;51.80;;;;;;4746044;54;21510;-33
2021/09/10 10:01:24;;;;;;;24.85;19.15;;;24.20;51.80;;;;;;4794810;54;21009;-33
2021/09/10 10:06:28;;;;;;;25.75;19.75;;;24.20;51.90;;;;;;4730464;59;21319;-31
2021/09/10 10:11:44;;;;;;;25.12;20.05;;;24.20;52.00;;;;;;4762714;54;21183;-35
2021/09/10 10:16:46;;;;;;;25.57;20.63;;;24.30;52.70;;;;;;4738103;54;21042;-30
2021/09/10 10:22:02;;;;;;;28.15;19.70;;;24.30;52.30;;;;;;4753488;54;21005;-32
2021/09/10 10:27:54;;;;;;;25.02;19.77;;;24.30;52.30;;;;;;4745088;54;21563;-33
2021/09/10 10:32:56;;;;;;;24.90;19.17;;;24.30;52.50;;;;;;4733346;55;21013;-32
2021/09/10 10:38:11;;;;;;;28.73;20.00;;;24.30;52.40;;;;;;4758975;55;21468;-32
2021/09/10 10:44:44;;;;;;;26.70;20.25;;;24.30;52.50;;;;;;4744973;54;21065;-32
2021/09/10 10:49:48;;;;;;;25.37;19.90;;;24.30;52.60;;;;;;4731114;55;21050;-33
2021/09/10 10:55:18;;;;;;;31.27;21.95;;;24.40;52.70;;;;;;4738945;54;21072;-32
2021/09/10 11:02:43;;;;;;;51.60;35.35;;;24.40;52.40;;;;;;4738041;55;21097;-30
2021/09/10 11:07:44;;;;;;;50.63;35.58;;;24.40;51.10;;;;;;4731620;55;22264;-32
2021/09/10 11:12:54;;;;;;;43.70;33.40;;;24.40;51.10;;;;;;4748362;55;21017;-30
2021/09/10 11:18:14;;;;;;;47.75;35.47;;;24.40;51.20;;;;;;4732078;59;21037;-33
2021/09/10 11:23:27;;;;;;;47.53;33.67;;;24.50;51.20;;;;;;4765691;54;21042;-31
2021/09/10 11:28:33;;;;;;;47.85;35.47;;;24.50;50.70;;;;;;4733459;54;21096;-32
2021/09/10 11:33:42;;;;;;;52.60;37.15;;;24.50;50.40;;;;;;4743375;54;21049;-34
2021/09/10 11:38:43;;;;;;;51.65;40.20;;;24.50;49.90;;;;;;4746443;55;21503;-31
2021/09/10 11:43:44;;;;;;;56.47;37.65;;;24.50;48.70;;;;;;4738825;55;21077;-31
2021/09/10 11:48:53;;;;;;;57.70;40.78;;;24.50;48.80;;;;;;4731428;59;21081;-32
2021/09/10 11:53:57;;;;;;;61.17;39.53;;;24.50;48.30;;;;;;4756237;54;21658;-32
2021/09/10 11:58:58;;;;;;;48.17;38.08;;;24.50;48.50;;;;;;4758339;55;21578;-30
2021/09/10 12:04:06;;;;;;;50.67;36.22;;;24.50;48.60;;;;;;4739742;54;21093;-30
2021/09/10 12:09:22;;;;;;;47.00;36.65;;;24.50;48.70;;;;;;4759461;54;22302;-34
2021/09/10 12:14:42;;;;;;;47.37;34.97;;;24.50;48.80;;;;;;4736933;54;21005;-34
2021/09/10 12:20:03;;;;;;;47.65;34.03;;;24.50;48.90;;;;;;4746929;55;20997;-31
2021/09/10 12:26:03;;;;;;;46.90;34.55;;;24.50;49.10;;;;;;4738770;54;21700;-29
2021/09/10 12:31:11;;;;;;;43.40;32.03;;;24.50;49.40;;;;;;4731161;55;21665;-31
2021/09/10 12:36:12;;;;;;;41.13;31.90;;;24.60;49.80;;;;;;4752995;54;21524;-29
2021/09/10 12:41:15;;;;;;;44.22;31.80;;;24.50;49.90;;;;;;4734691;54;21009;-30
2021/09/10 12:46:15;;;;;;;41.83;30.33;;;24.60;50.30;;;;;;4733002;55;21507;-27
2021/09/10 12:51:18;;;;;;;41.33;31.60;;;24.60;50.50;;;;;;4733834;54;21065;-27
2021/09/10 12:56:18;;;;;;;46.10;30.05;;;24.70;50.80;;;;;;4746214;55;21069;-26
2021/09/10 13:01:19;;;;;;;39.03;28.60;;;24.70;51.10;;;;;;4730769;59;21008;-33
2021/09/10 13:06:20;;;;;;;39.35;30.75;;;24.70;51.60;;;;;;4729594;59;21475;-31
2021/09/10 13:11:21;;;;;;;41.65;28.98;;;24.70;51.30;;;;;;4731205;55;20997;-32
2021/09/10 13:16:22;;;;;;;38.03;30.10;;;24.70;51.50;;;;;;4741022;55;21037;-29
2021/09/10 13:21:23;;;;;;;39.22;29.67;;;24.70;51.70;;;;;;4733600;55;21362;-34
2021/09/10 13:26:24;;;;;;;35.60;28.15;;;24.70;51.80;;;;;;4727699;58;21144;-30
2021/09/10 13:31:25;;;;;;;36.53;28.52;;;24.70;51.90;;;;;;4726909;59;21013;-29
2021/09/10 13:36:26;;;;;;;37.28;28.98;;;24.70;52.00;;;;;;4728697;59;21009;-32
2021/09/10 13:41:27;;;;;;;35.78;26.98;;;24.70;52.10;;;;;;4743228;55;21150;-33
2021/09/10 13:46:29;;;;;;;37.15;27.25;;;24.70;52.50;;;;;;4730966;54;21049;-29
2021/09/10 13:51:31;;;;;;;37.30;27.73;;;24.70;52.70;;;;;;4733252;55;21754;-33
2021/09/10 13:56:31;;;;;;;38.75;27.33;;;24.70;52.70;;;;;;4740437;55;21037;-33
2021/09/10 14:01:32;;;;;;;33.45;26.98;;;24.70;52.80;;;;;;4733370;55;21001;-34
2021/09/10 14:06:33;;;;;;;32.75;26.75;;;24.70;52.90;;;;;;4733153;54;21103;-32
2021/09/10 14:11:34;;;;;;;33.03;26.85;;;24.70;53.00;;;;;;4733978;54;21002;-32
2021/09/10 14:16:36;;;;;;;33.83;26.87;;;24.70;53.00;;;;;;4756907;55;21107;-31
2021/09/10 14:21:37;;;;;;;34.03;25.65;;;24.70;53.00;;;;;;4734326;55;21064;-30
2021/09/10 14:26:38;;;;;;;34.67;26.85;;;24.70;53.00;;;;;;4732345;54;21068;-28
2021/09/10 14:31:39;;;;;;;31.20;26.12;;;24.60;53.00;;;;;;4740392;55;21511;-34
2021/09/10 14:36:40;;;;;;;32.67;26.45;;;24.60;53.00;;;;;;4734882;55;21033;-31
2021/09/10 14:41:41;;;;;;;34.00;26.60;;;24.50;53.00;;;;;;4732572;54;21072;-34
2021/09/10 14:46:43;;;;;;;32.47;25.40;;;24.50;53.00;;;;;;4739448;55;21097;-32
2021/09/10 14:51:44;;;;;;;32.70;25.48;;;24.50;53.00;;;;;;4731303;59;21123;-33
2021/09/10 14:56:45;;;;;;;33.53;25.83;;;24.50;53.00;;;;;;4769692;55;21072;-32
2021/09/10 15:01:46;;;;;;;31.23;25.27;;;24.50;53.00;;;;;;4731712;59;20997;-27
2021/09/10 15:06:47;;;;;;;29.52;24.98;;;24.50;53.00;;;;;;4765302;54;21053;-33
2021/09/10 15:11:48;;;;;;;29.75;25.05;;;24.50;53.00;;;;;;4732237;55;21005;-31
2021/09/10 15:16:49;;;;;;;29.25;24.45;;;24.40;52.90;;;;;;4748240;55;21093;-36
2021/09/10 15:21:50;;;;;;;30.73;25.90;;;24.40;53.50;;;;;;4731611;54;21085;-31
2021/09/10 15:26:51;;;;;;;30.02;24.73;;;24.40;52.90;;;;;;4779404;55;21037;-34
2021/09/10 15:31:52;;;;;;;29.12;25.23;;;24.40;52.90;;;;;;4731619;55;21009;-33
2021/09/10 15:36:53;;;;;;;31.87;24.98;;;24.40;52.80;;;;;;4731829;59;21494;-31
2021/09/10 15:41:54;;;;;;;30.33;24.58;;;24.30;52.80;;;;;;4731599;59;21061;-34
2021/09/10 15:46:54;;;;;;;29.85;24.90;;;24.30;52.80;;;;;;4731067;59;21075;-30
2021/09/10 15:51:58;;;;;;;30.08;24.95;;;24.30;52.70;;;;;;4734898;55;22319;-33
2021/09/10 15:56:59;;;;;;;29.98;23.87;;;24.30;52.70;;;;;;4735273;55;21185;-34
2021/09/10 16:02:00;;;;;;;27.05;24.15;;;24.30;52.70;;;;;;4736769;55;21002;-31
2021/09/10 16:07:01;;;;;;;27.30;23.90;;;24.30;52.80;;;;;;4737510;55;21567;-33
2021/09/10 16:12:02;;;;;;;30.55;24.12;;;24.30;52.70;;;;;;4755780;55;21025;-32
2021/09/10 16:17:02;;;;;;;29.37;24.77;;;24.30;52.70;;;;;;4744562;54;21057;-30
2021/09/10 16:22:03;;;;;;;29.05;24.77;;;24.30;52.60;;;;;;4732395;55;21471;-31
2021/09/10 16:27:04;;;;;;;27.87;24.60;;;24.30;52.60;;;;;;4755651;55;21045;-33
2021/09/10 16:32:06;;;;;;;30.88;25.00;;;24.30;52.60;;;;;;4741832;55;21040;-34
2021/09/10 16:37:06;;;;;;;28.10;24.48;;;24.30;52.60;;;;;;4753188;54;21037;-35
2021/09/10 16:42:07;;;;;;;28.30;23.77;;;24.30;52.60;;;;;;4733940;55;21021;-35
2021/09/10 16:47:08;;;;;;;28.35;24.42;;;24.30;52.60;;;;;;4731009;56;21041;-35
2021/09/10 16:52:09;;;;;;;29.15;24.30;;;24.30;52.60;;;;;;4735305;55;21021;-31
2021/09/10 16:57:10;;;;;;;29.10;24.15;;;24.30;52.60;;;;;;4747168;54;21499;-34
2021/09/10 17:02:12;;;;;;;27.62;23.70;;;24.30;52.60;;;;;;4736092;55;21016;-35
2021/09/10 17:07:14;;;;;;;27.67;24.42;;;24.30;52.60;;;;;;4731394;55;21674;-35
2021/09/10 17:12:14;;;;;;;28.38;25.20;;;24.30;52.50;;;;;;4731352;56;21117;-30
2021/09/10 17:17:15;;;;;;;26.42;23.50;;;24.30;52.50;;;;;;4733486;55;21081;-30
2021/09/10 17:22:16;;;;;;;29.95;24.50;;;24.30;52.50;;;;;;4734109;55;21086;-33
2021/09/10 17:27:17;;;;;;;26.55;23.62;;;24.30;52.50;;;;;;4744658;55;21535;-34
2021/09/10 17:32:18;;;;;;;28.15;24.25;;;24.30;52.50;;;;;;4735810;55;21101;-31
2021/09/10 17:37:19;;;;;;;27.30;22.70;;;24.20;52.50;;;;;;4736192;54;21101;-34
2021/09/10 17:42:19;;;;;;;27.90;24.37;;;24.20;52.40;;;;;;4736343;55;21495;-35
2021/09/10 17:47:21;;;;;;;29.23;23.90;;;24.30;52.50;;;;;;4770242;54;21092;-31
2021/09/10 17:52:22;;;;;;;26.25;23.23;;;24.20;52.40;;;;;;4761767;54;21045;-34
2021/09/10 17:57:23;;;;;;;29.17;24.55;;;24.20;52.50;;;;;;4736782;55;21556;-34
2021/09/10 18:02:25;;;;;;;28.08;24.63;;;24.20;52.40;;;;;;4735890;55;21451;-28
2021/09/10 18:07:26;;;;;;;28.15;23.15;;;24.20;52.40;;;;;;4735332;55;21594;-34
2021/09/10 18:12:27;;;;;;;26.50;23.58;;;24.20;52.40;;;;;;4738198;54;21025;-34
2021/09/10 18:17:29;;;;;;;26.77;22.73;;;24.20;52.40;;;;;;4731580;55;21535;-31
2021/09/10 18:22:30;;;;;;;27.70;23.87;;;24.20;52.40;;;;;;4731623;59;21463;-32
2021/09/10 18:27:31;;;;;;;25.95;23.15;;;24.20;52.40;;;;;;4730031;58;21030;-35
2021/09/10 18:32:31;;;;;;;26.85;23.58;;;24.20;52.30;;;;;;4731762;59;21009;-28
2021/09/10 18:37:32;;;;;;;28.02;24.33;;;24.20;52.30;;;;;;4753049;54;21081;-32
2021/09/10 18:42:36;;;;;;;26.37;23.40;;;24.20;52.30;;;;;;4766126;55;21001;-33
2021/09/10 18:47:37;;;;;;;26.20;23.30;;;24.20;52.30;;;;;;4731304;55;21018;-33
2021/09/10 18:52:38;;;;;;;27.40;23.35;;;24.20;52.30;;;;;;4757223;55;21119;-32
2021/09/10 18:57:41;;;;;;;26.67;23.05;;;24.20;52.30;;;;;;4740216;55;22228;-35
2021/09/10 19:02:44;;;;;;;26.87;22.58;;;24.20;52.20;;;;;;4738615;55;21483;-32
2021/09/10 19:07:45;;;;;;;26.87;23.52;;;24.20;52.30;;;;;;4749645;55;21491;-31
2021/09/10 19:12:46;;;;;;;25.80;23.02;;;24.20;52.80;;;;;;4736036;55;21575;-32
2021/09/10 19:17:47;;;;;;;27.52;23.45;;;24.20;52.10;;;;;;4803860;54;21001;-33
2021/09/10 19:22:49;;;;;;;26.70;22.70;;;24.20;52.10;;;;;;4744458;55;21490;-34
2021/09/10 19:27:50;;;;;;;26.10;22.58;;;24.20;52.00;;;;;;4757611;54;21050;-34
2021/09/10 19:32:51;;;;;;;23.98;21.12;;;24.20;52.00;;;;;;4776901;55;20993;-33
2021/09/10 19:37:52;;;;;;;26.98;22.02;;;24.20;52.10;;;;;;4732110;55;21017;-30
2021/09/10 19:42:54;;;;;;;24.48;21.45;;;24.20;52.00;;;;;;4752209;55;21009;-31
2021/09/10 19:47:55;;;;;;;24.17;21.27;;;24.20;51.90;;;;;;4731299;59;21500;-32
2021/09/10 19:52:56;;;;;;;24.90;20.90;;;24.20;52.00;;;;;;4751081;55;20993;-31
2021/09/10 19:57:57;;;;;;;22.80;19.92;;;24.10;51.90;;;;;;4735513;55;21479;-33
2021/09/10 20:02:58;;;;;;;23.73;19.67;;;24.10;52.50;;;;;;4773382;55;21017;-32
2021/09/10 20:07:59;;;;;;;24.17;20.77;;;24.10;51.80;;;;;;4737588;55;21018;-33
2021/09/10 20:13:00;;;;;;;24.02;20.88;;;24.10;51.80;;;;;;4746141;54;21487;-30
2021/09/10 20:18:01;;;;;;;22.13;19.73;;;24.10;51.70;;;;;;4731259;59;21014;-31
2021/09/10 20:23:02;;;;;;;21.60;19.23;;;24.10;51.70;;;;;;4739814;55;21036;-33
2021/09/10 20:28:03;;;;;;;23.55;19.95;;;24.10;52.40;;;;;;4730800;59;21018;-32
2021/09/10 20:33:04;;;;;;;22.37;19.10;;;24.10;51.70;;;;;;4775704;54;21053;-32
2021/09/10 20:38:05;;;;;;;21.48;19.17;;;24.10;51.70;;;;;;4772588;54;21475;-32
2021/09/10 20:43:06;;;;;;;21.52;19.02;;;24.10;51.70;;;;;;4759728;55;21029;-32
2021/09/10 20:48:08;;;;;;;23.77;18.60;;;24.10;51.70;;;;;;4730611;58;21029;-32
2021/09/10 20:53:10;;;;;;;21.55;18.58;;;24.10;51.70;;;;;;4751648;54;21005;-33
2021/09/10 20:58:11;;;;;;;22.80;19.12;;;24.10;51.70;;;;;;4731986;54;21613;-33
2021/09/10 21:03:11;;;;;;;20.90;18.17;;;24.10;51.60;;;;;;4737741;55;21088;-29
2021/09/10 21:08:12;;;;;;;21.10;18.10;;;24.10;51.60;;;;;;4776390;55;21082;-35
2021/09/10 21:13:14;;;;;;;20.55;16.83;;;24.10;51.60;;;;;;4731219;59;21069;-28
2021/09/10 21:18:15;;;;;;;22.40;18.00;;;24.10;51.70;;;;;;4731793;59;22179;-32
2021/09/10 21:23:16;;;;;;;21.27;17.62;;;24.10;51.70;;;;;;4767562;55;21071;-34
2021/09/10 21:28:17;;;;;;;19.67;17.40;;;24.10;51.60;;;;;;4731371;59;21109;-37
2021/09/10 21:33:18;;;;;;;20.33;17.42;;;24.10;51.60;;;;;;4748387;55;21459;-33
2021/09/10 21:38:19;;;;;;;20.25;17.92;;;24.10;51.60;;;;;;4739825;54;21001;-34
2021/09/10 21:43:21;;;;;;;20.77;17.25;;;24.10;51.60;;;;;;4730505;59;21017;-33
2021/09/10 21:48:22;;;;;;;20.65;17.45;;;24.10;52.30;;;;;;4734961;55;21607;-35
2021/09/10 21:53:22;;;;;;;19.73;17.62;;;24.10;52.10;;;;;;4750059;55;21017;-33
2021/09/10 21:58:23;;;;;;;20.05;16.90;;;24.10;51.60;;;;;;4731953;55;21041;-35
2021/09/10 22:03:24;;;;;;;20.10;16.95;;;24.10;51.60;;;;;;4776762;54;21029;-34
2021/09/10 22:08:25;;;;;;;19.05;16.70;;;24.10;51.60;;;;;;4780552;54;21120;-34
2021/09/10 22:13:27;;;;;;;19.10;16.98;;;24.10;51.60;;;;;;4757891;54;21092;-36
2021/09/10 22:18:28;;;;;;;18.48;16.27;;;24.10;51.60;;;;;;4806030;55;21017;-35
2021/09/10 22:23:29;;;;;;;18.58;16.25;;;24.10;51.60;;;;;;4746707;55;21614;-32
2021/09/10 22:28:30;;;;;;;20.48;17.05;;;24.10;51.60;;;;;;4745991;54;21095;-31
2021/09/10 22:33:31;;;;;;;17.67;15.48;;;24.10;51.50;;;;;;4747103;54;21009;-33
2021/09/10 22:38:32;;;;;;;18.25;16.25;;;24.10;51.50;;;;;;4765924;55;21495;-31
2021/09/10 22:43:35;;;;;;;16.98;15.18;;;24.10;51.50;;;;;;4731166;59;21122;-34
2021/09/10 22:48:36;;;;;;;18.62;16.40;;;24.10;51.60;;;;;;4743839;55;21016;-31
2021/09/10 22:53:37;;;;;;;19.12;15.98;;;24.10;51.50;;;;;;4766287;55;21001;-31
2021/09/10 22:58:38;;;;;;;17.58;15.63;;;24.10;51.50;;;;;;4744305;55;21005;-30
2021/09/10 23:03:41;;;;;;;18.58;16.12;;;24.10;51.50;;;;;;4771024;55;21004;-33
2021/09/10 23:08:42;;;;;;;17.27;14.75;;;24.10;51.50;;;;;;4766494;54;21507;-34
2021/09/10 23:13:44;;;;;;;17.75;15.88;;;24.10;51.60;;;;;;4744204;55;21048;-35
2021/09/10 23:18:45;;;;;;;17.02;15.07;;;24.10;51.60;;;;;;4740788;55;21087;-35
2021/09/10 23:23:46;;;;;;;16.85;14.70;;;24.10;51.50;;;;;;4766739;54;21057;-33
2021/09/10 23:28:47;;;;;;;16.83;14.77;;;24.10;51.50;;;;;;4765250;54;22341;-33
2021/09/10 23:33:47;;;;;;;15.80;14.07;;;24.10;51.60;;;;;;4742387;55;21033;-34
2021/09/10 23:38:48;;;;;;;16.90;15.10;;;24.10;51.50;;;;;;4736848;55;21017;-37
2021/09/10 23:43:49;;;;;;;15.68;13.98;;;24.10;51.50;;;;;;4743168;55;21131;-32
2021/09/10 23:48:50;;;;;;;15.77;14.18;;;24.10;51.50;;;;;;4741454;55;21013;-33
2021/09/10 23:53:51;;;;;;;16.73;14.90;;;24.10;51.50;;;;;;4738463;55;21013;-34
2021/09/10 23:58:55;;;;;;;16.10;14.40;;;24.10;51.40;;;;;;4742954;55;21487;-33
